Skip Navigation Links
NOAA logo - Click to go to the NOAA homepage
NOAA's National Weather Service
Alaska Aviation Weather Unit
  NWS logo - Click to go to the NWS homepage
Left Navbar Graphic     10 AKDT = 18 GMT

   
NOAA is celebrating 200 years of science, service, and stewardship. Visit the NOAA 200th celebration Web site to learn more.
USA.gov is the U.S. Government's official Web portal to all Federal, state and local government Web resources and services.
Facebook
NWS on Facebook

Important Change Regarding the AAWU Web Presence

 

Over the last several months, the AAWU has been working to navigate its webpages to a nationally supported server. Security, as well as other needs, have necessitated the change.  We have been given an extension for the site changeover while we diligently work at addressing feedback received. As of July 14, 2017, aawu.arh.noaa.gov will be discontinued. The new AAWU web address is weather.gov/aawu. It is now live and will run in-parallel with the old site until it is discontinued on July 14, 2017. Please continue to send any feedback or questions regarding the new webpages to nws.ar.aawu.webauthors@noaa.gov.  Thank you for your patience during this time of transition.
AAWU Home :: Display TAF Add Bookmark
TAF PANC 261738Z 2618/2724  04006KT P6SM VCFG SCT005 SCT070
      TEMPO 2618/2619 4SM BR BKN005
     FM262000 03006KT P6SM FEW010 BKN100
     FM270800 35005KT P6SM VCSH SCT040 OVC060=


METAR PANC 261253Z 00000KT 10SM FEW028 04/04 A2974=

PANC 261306Z 00000KT 10SM SCT006 SCT028 05/04 A2974=

SPECI PANC 261306Z 00000KT 10SM SCT006 SCT028 05/04 A2974 RMK AO2
     T00500039=

PANC 261308Z 00000KT 10SM BKN006 BKN028 05/04 A2974=

SPECI PANC 261308Z 00000KT 10SM BKN006 BKN028 05/04 A2974 RMK AO2
     T00500039=

PANC 261333Z 00000KT 10SM OVC004 07/06 A2974=

SPECI PANC 261333Z 00000KT 10SM OVC004 07/06 A2974 RMK AO2 T00670056=

PANC 261350Z 35005KT 10SM FEW004 07/06 A2974=

PANC 261350Z 35005KT 10SM FEW004 07/06 A2974 RMK AO2=

METAR PANC 261353Z 34004KT 9SM FEW004 07/06 A2974=

PANC 261433Z VRB05KT 10SM R07R/1600V2200FT FEW004 07/06 A2973=

SPECI PANC 261433Z VRB05KT 10SM R07R/1600V2200FT FEW004 07/06 A2973 RMK
     AO2 T00670061=

PANC 261441Z VRB03KT 1/2SM R07R/1600V1800FT BCFG FEW002 07/06
A2973=

SPECI PANC 261441Z VRB03KT 1/2SM R07R/1600V1800FT BCFG FEW002 07/06
     A2973 RMK AO2 SFC VIS 10 BCFG W-NW T00670061=

PANC 261448Z 35004KT 1/4SM R07R/1600V2000FT BCFG SCT002 SCT070
06/06 A2973=

SPECI PANC 261448Z 35004KT 1/4SM R07R/1600V2000FT BCFG SCT002 SCT070
     06/06 A2973 RMK AO2 SFC VIS 10 VIS W-NW 1SM=

METAR PANC 261453Z 34005KT 1/4SM R07R/1600V2000FT BCFG SCT002 SCT070
     06/06 A2972=

PANC 261456Z VRB03KT 1/4SM R07R/1600V3000FT FG VV002 06/06 A2973=

PANC 261456Z VRB03KT 1/4SM R07R/1600V3000FT FG VV002 06/06 A2973
     RMK AO2 T00610056=

METAR PANC 261553Z 01006KT 1/4SM R07R/2400V5000FT FG VV002 06/05
     A2972=

PANC 261627Z 00000KT 3SM BR BCFG BKN002 05/04 A2972=

SPECI PANC 261627Z 00000KT 3SM BR BCFG BKN002 05/04 A2972 RMK AO2 VIS
     E-S 2 T00500044=

METAR PANC 261653Z 07004KT 10SM BCFG BKN003 05/04 A2972=

PANC 261709Z 04004KT 10SM BCFG BKN005 05/04 A2971=

SPECI PANC 261709Z 04004KT 10SM BCFG BKN005 05/04 A2971 RMK AO2 VIS E 2
     T00500044=

PANC 261751Z 02007KT 10SM BCFG SCT005 SCT200 06/04 A2970=

SPECI PANC 261751Z 02007KT 10SM BCFG SCT005 SCT200 06/04 A2970 RMK AO2
     VIS E 2 1/2=

METAR PANC 261753Z 01007KT 10SM BCFG SCT005 SCT200 06/04 A2970=


NOAA's National Weather Service
Alaska Aviation Weather Unit
6930 Sand Lake Road
Anchorage, AK 99502-1845
Disclaimer
Credits
Glossary
Privacy Policy
About Us
Career Opportunities
Contact AAWU Internet Services Site last modified: April, 17th 2012